Time;durP1;ratioP1;P1;durP2;ratioP2;P2;SDS_P1;SDS_P2;PMS_P1;PMS_P2;Temp;Humidity;BMP_temperature;BMP_pressure;BME280_temperature;BME280_humidity;BME280_pressure;Samples;Min_cycle;Max_cycle;Signal;HPM_P1;HPM_P2
2023/12/17 00:00:15;;;;;;;;;92.33;75.00;;;;;-146.67;61.20;77987.22;5081048;28;62079;-76
2023/12/17 00:02:40;;;;;;;;;97.00;78.33;;;;;-146.67;60.93;77989.22;5076001;28;62844;-76
2023/12/17 00:05:06;;;;;;;;;96.33;73.67;;;;;-146.67;60.86;77987.22;5060919;28;61878;-76
2023/12/17 00:07:32;;;;;;;;;99.00;77.33;;;;;-146.67;60.84;77983.22;5060375;28;61757;-75
2023/12/17 00:09:57;;;;;;;;;91.00;68.33;;;;;-146.67;61.41;77979.22;5061037;28;62021;-76
2023/12/17 00:12:22;;;;;;;;;94.33;72.00;;;;;-146.67;61.55;77981.22;5069766;28;63052;-76
2023/12/17 00:14:48;;;;;;;;;93.00;72.00;;;;;-146.67;60.84;77989.22;5081008;27;61852;-76
2023/12/17 00:17:13;;;;;;;;;86.00;68.33;;;;;-146.67;60.53;77991.22;5080951;27;61884;-75
2023/12/17 00:19:39;;;;;;;;;98.33;72.67;;;;;-146.67;61.10;77993.22;5080840;27;62171;-75
2023/12/17 00:22:04;;;;;;;;;97.00;73.00;;;;;-146.67;61.64;77995.22;5079970;27;62066;-76
2023/12/17 00:24:29;;;;;;;;;92.33;69.67;;;;;-146.67;61.63;77993.22;5080845;27;61806;-75
2023/12/17 00:26:57;;;;;;;;;94.00;69.67;;;;;-146.67;61.64;77997.22;5081234;27;61837;-76
2023/12/17 00:29:23;;;;;;;;;96.33;71.33;;;;;-146.67;61.55;77997.22;5080579;28;62153;-75
2023/12/17 00:31:48;;;;;;;;;99.00;75.00;;;;;-146.67;61.37;77999.22;5080194;27;62813;-75
2023/12/17 00:34:13;;;;;;;;;98.33;78.33;;;;;-146.67;61.77;78011.22;5079050;28;61970;-76
2023/12/17 00:36:39;;;;;;;;;90.67;72.00;;;;;-146.67;61.41;78015.19;5080779;27;62215;-76
2023/12/17 00:39:04;;;;;;;;;91.67;70.00;;;;;-146.67;61.36;78019.19;5080183;27;61849;-76
2023/12/17 00:41:31;;;;;;;;;101.00;77.67;;;;;-146.67;61.60;78019.19;5079930;27;61766;-75
2023/12/17 00:43:57;;;;;;;;;97.00;74.67;;;;;-146.67;61.60;78019.19;5079605;28;61800;-76
2023/12/17 00:46:23;;;;;;;;;95.67;74.00;;;;;-146.67;61.68;78017.19;5080432;27;61836;-76
2023/12/17 00:48:48;;;;;;;;;98.67;74.00;;;;;-146.67;61.77;78017.19;5081074;28;62084;-76
2023/12/17 00:51:14;;;;;;;;;96.67;80.33;;;;;-146.67;61.68;78013.19;5079170;28;61851;-76
2023/12/17 00:53:39;;;;;;;;;94.33;76.67;;;;;-146.67;61.38;78023.19;5079672;28;62033;-76
2023/12/17 00:56:05;;;;;;;;;97.00;68.67;;;;;-146.67;61.50;78029.19;5081024;27;61794;-75
2023/12/17 00:58:30;;;;;;;;;93.33;72.33;;;;;-146.67;61.65;78025.19;5080296;28;62114;-75
2023/12/17 01:00:56;;;;;;;;;96.67;77.00;;;;;-146.67;61.76;78025.19;5080167;27;62067;-76
2023/12/17 01:03:21;;;;;;;;;95.67;70.00;;;;;-146.67;61.91;78035.19;5078368;28;61817;-76
2023/12/17 01:05:46;;;;;;;;;94.67;75.33;;;;;-146.67;62.11;78047.16;5080122;27;62631;-76
2023/12/17 01:08:12;;;;;;;;;94.33;69.00;;;;;-146.67;62.15;78055.16;5080457;28;62140;-75
2023/12/17 01:10:37;;;;;;;;;93.67;75.00;;;;;-146.67;62.39;78057.16;5078437;28;64584;-76
2023/12/17 01:13:02;;;;;;;;;93.00;74.33;;;;;-146.67;62.68;78059.16;5095275;27;61859;-75
2023/12/17 01:15:28;;;;;;;;;97.00;74.00;;;;;-146.67;62.70;78057.16;5080139;28;61946;-76
2023/12/17 01:17:53;;;;;;;;;94.67;67.33;;;;;-146.67;62.99;78055.16;5080706;28;61864;-76
2023/12/17 01:20:18;;;;;;;;;90.00;71.00;;;;;-146.67;62.53;78061.16;5095960;27;63662;-76
2023/12/17 01:22:44;;;;;;;;;95.00;69.33;;;;;-146.67;62.79;78067.16;5099086;27;61794;-75
2023/12/17 01:25:09;;;;;;;;;90.00;68.67;;;;;-146.67;62.75;78069.16;5082772;28;61928;-76
2023/12/17 01:27:34;;;;;;;;;93.33;68.33;;;;;-146.67;62.58;78067.16;5083556;28;62430;-75
2023/12/17 01:30:00;;;;;;;;;82.00;63.00;;;;;-146.67;62.68;78069.16;5083477;28;61837;-75
2023/12/17 01:32:25;;;;;;;;;97.33;69.33;;;;;-146.67;62.79;78065.16;5098961;27;61695;-75
2023/12/17 01:34:51;;;;;;;;;83.33;64.33;;;;;-146.67;62.56;78055.16;5117544;27;62002;-76
2023/12/17 01:37:16;;;;;;;;;91.33;67.00;;;;;-146.67;62.36;78057.16;5104111;27;62075;-76
2023/12/17 01:39:42;;;;;;;;;86.33;66.00;;;;;-146.67;62.31;78059.16;5103425;27;61808;-75
2023/12/17 01:42:08;;;;;;;;;88.67;66.00;;;;;-146.67;62.42;78061.16;5103936;27;61864;-76
2023/12/17 01:44:33;;;;;;;;;91.67;67.67;;;;;-146.67;62.61;78059.16;5104066;27;62196;-76
2023/12/17 01:46:59;;;;;;;;;90.33;68.67;;;;;-146.67;62.70;78057.16;5104425;27;62012;-75
2023/12/17 01:49:25;;;;;;;;;92.00;67.00;;;;;-146.67;62.50;78057.16;5103048;27;62820;-75
2023/12/17 01:51:51;;;;;;;;;90.00;67.33;;;;;-146.67;62.70;78059.16;5103748;27;61992;-75
2023/12/17 01:54:18;;;;;;;;;90.00;67.33;;;;;-146.67;62.54;78061.16;5087785;27;61736;-76
2023/12/17 01:56:43;;;;;;;;;84.67;64.67;;;;;-146.67;62.21;78065.16;5081763;28;62172;-76
2023/12/17 01:59:09;;;;;;;;;80.33;63.67;;;;;-146.67;62.48;78067.16;5098615;27;63626;-75
2023/12/17 02:01:34;;;;;;;;;82.67;63.67;;;;;-146.67;62.16;78073.16;5083358;28;61632;-76
2023/12/17 02:04:01;;;;;;;;;90.00;66.00;;;;;-146.67;62.36;78079.16;5083254;28;61836;-75
2023/12/17 02:06:26;;;;;;;;;87.00;65.67;;;;;-146.67;62.29;78075.16;5083640;28;61797;-75
2023/12/17 02:08:51;;;;;;;;;88.00;64.67;;;;;-146.67;62.31;78077.16;5080813;28;63522;-76
2023/12/17 02:11:17;;;;;;;;;89.33;64.33;;;;;-146.67;62.50;78079.16;5080692;28;61737;-76
2023/12/17 02:13:42;;;;;;;;;89.00;65.00;;;;;-146.67;62.06;78075.16;5095700;27;61849;-75
2023/12/17 02:16:09;;;;;;;;;83.33;60.33;;;;;-146.67;61.85;78077.16;5083722;27;61719;-76
2023/12/17 02:18:35;;;;;;;;;86.00;64.33;;;;;-146.67;61.77;78083.13;5082437;27;61809;-76
2023/12/17 02:21:01;;;;;;;;;88.00;65.00;;;;;-146.67;61.86;78081.16;5082495;27;61824;-75
2023/12/17 02:23:27;;;;;;;;;84.00;64.00;;;;;-146.67;61.84;78077.16;5082745;27;61766;-75
2023/12/17 02:25:52;;;;;;;;;84.00;65.33;;;;;-146.67;62.00;78081.16;5082726;27;61751;-75
2023/12/17 02:28:18;;;;;;;;;84.33;65.67;;;;;-146.67;62.17;78079.16;5082696;27;62506;-76
2023/12/17 02:30:43;;;;;;;;;85.33;64.33;;;;;-146.67;62.29;78075.16;5082969;27;61929;-75
2023/12/17 02:33:08;;;;;;;;;85.33;64.00;;;;;-146.67;62.51;78077.16;5082959;27;61864;-75
2023/12/17 02:35:34;;;;;;;;;86.67;65.33;;;;;-146.67;62.34;78081.16;5083115;27;61829;-75
2023/12/17 02:37:59;;;;;;;;;85.00;62.00;;;;;-146.67;62.72;78079.16;5080082;28;63733;-75
2023/12/17 02:40:24;;;;;;;;;87.00;65.00;;;;;-146.67;62.53;78071.16;5082584;27;61762;-76
2023/12/17 02:42:50;;;;;;;;;81.67;62.33;;;;;-146.67;62.35;78071.16;5082468;27;62045;-76
2023/12/17 02:45:15;;;;;;;;;82.33;61.33;;;;;-146.67;62.21;78067.16;5083067;27;61849;-75
2023/12/17 02:47:40;;;;;;;;;87.33;65.33;;;;;-146.67;62.09;78067.16;5063250;28;62766;-75
2023/12/17 02:50:06;;;;;;;;;80.00;60.00;;;;;-146.67;62.26;78063.16;5062033;28;61917;-76
2023/12/17 02:52:32;;;;;;;;;82.33;59.67;;;;;-146.67;62.32;78065.16;5062156;28;61871;-75
2023/12/17 02:54:57;;;;;;;;;78.33;59.67;;;;;-146.67;62.09;78067.16;5094488;27;61919;-75
2023/12/17 02:57:26;;;;;;;;;81.33;61.67;;;;;-146.67;62.32;78061.16;5094391;27;63512;-76
2023/12/17 02:59:53;;;;;;;;;78.33;58.33;;;;;-146.67;62.42;78059.16;5077823;28;61953;-75
2023/12/17 03:02:18;;;;;;;;;82.33;59.33;;;;;-146.67;62.13;78057.16;5063382;28;61965;-75
2023/12/17 03:04:43;;;;;;;;;83.00;58.67;;;;;-146.67;61.89;78055.16;5081659;28;62194;-75
2023/12/17 03:07:09;;;;;;;;;84.33;61.33;;;;;-146.67;62.73;78071.16;5080710;28;64302;-76
2023/12/17 03:09:34;;;;;;;;;86.00;64.67;;;;;-146.67;62.48;78057.16;5082446;27;61704;-76
2023/12/17 03:11:59;;;;;;;;;79.33;63.00;;;;;-146.67;62.57;78057.16;5082483;27;61774;-76
2023/12/17 03:14:25;;;;;;;;;82.00;61.33;;;;;-146.67;62.91;78053.16;5081655;28;62153;-76
2023/12/17 03:16:50;;;;;;;;;79.67;58.00;;;;;-146.67;63.13;78051.16;5080651;28;63818;-75
2023/12/17 03:19:16;;;;;;;;;81.00;61.33;;;;;-146.67;62.96;78047.16;5082501;27;61770;-76
2023/12/17 03:21:41;;;;;;;;;76.67;58.00;;;;;-146.67;62.73;78039.19;5082904;27;61971;-75
2023/12/17 03:24:06;;;;;;;;;79.00;60.33;;;;;-146.67;62.75;78045.19;5082008;27;61758;-76
2023/12/17 03:26:32;;;;;;;;;79.33;61.67;;;;;-146.67;62.31;78045.19;5082412;27;61890;-76
2023/12/17 03:28:57;;;;;;;;;79.33;60.00;;;;;-146.67;62.42;78045.19;5082569;27;61811;-75
2023/12/17 03:31:23;;;;;;;;;81.67;63.67;;;;;-146.67;62.30;78045.19;5098320;27;61872;-76
2023/12/17 03:33:48;;;;;;;;;81.33;62.00;;;;;-146.67;61.94;78041.19;5081170;28;61891;-75
2023/12/17 03:36:15;;;;;;;;;79.33;61.67;;;;;-146.67;61.75;78047.16;5081969;27;62762;-76
2023/12/17 03:38:45;;;;;;;;;87.33;62.67;;;;;-146.67;61.96;78049.16;5081698;27;61803;-75
2023/12/17 03:41:24;;;;;;;;;84.00;59.00;;;;;-146.67;61.95;78049.16;5082548;27;61856;-75
2023/12/17 03:43:51;;;;;;;;;82.00;61.33;;;;;-146.67;61.50;78037.19;5082334;27;62090;-76
2023/12/17 03:46:19;;;;;;;;;83.67;63.00;;;;;-146.67;61.55;78039.19;5081744;27;61750;-75
2023/12/17 03:48:44;;;;;;;;;82.00;61.00;;;;;-146.67;61.58;78035.19;5082475;27;62498;-75
2023/12/17 03:51:10;;;;;;;;;74.00;60.33;;;;;-146.67;61.36;78039.19;5081936;27;61721;-75
2023/12/17 03:53:35;;;;;;;;;70.00;54.67;;;;;-146.67;61.16;78037.19;5087163;27;61867;-75
2023/12/17 03:56:01;;;;;;;;;88.00;64.33;;;;;-146.67;61.11;78043.19;5102420;27;61130;-75
2023/12/17 03:58:27;;;;;;;;;71.33;57.67;;;;;-146.67;61.27;78047.16;5103190;27;61266;-75
2023/12/17 04:00:53;;;;;;;;;71.00;56.33;;;;;-146.67;62.27;78051.16;5104392;27;61177;-76
2023/12/17 04:03:19;;;;;;;;;75.00;57.00;;;;;-146.67;62.57;78047.16;5095475;27;58969;-75
2023/12/17 04:05:44;;;;;;;;;68.00;50.67;;;;;-146.67;62.67;78041.19;5088349;27;59241;-76
2023/12/17 04:08:09;;;;;;;;;64.00;53.00;;;;;-146.67;62.81;78033.19;5088839;27;59523;-76
2023/12/17 04:10:35;;;;;;;;;73.33;55.67;;;;;-146.67;62.86;78027.19;5090932;28;56487;-75
2023/12/17 04:13:00;;;;;;;;;69.33;54.00;;;;;-146.67;62.50;78023.19;5089487;28;54976;-75
2023/12/17 04:15:26;;;;;;;;;69.00;52.33;;;;;-146.67;62.43;78031.19;5092420;27;56987;-76
2023/12/17 04:17:51;;;;;;;;;71.00;54.00;;;;;-146.67;62.29;78035.19;5089888;27;59949;-76
2023/12/17 04:20:16;;;;;;;;;63.50;49.25;;;;;-146.67;62.50;78041.19;5085940;27;61043;-75
2023/12/17 04:22:42;;;;;;;;;69.00;53.00;;;;;-146.67;62.82;78039.19;5083287;27;60842;-75
2023/12/17 04:25:10;;;;;;;;;64.50;49.25;;;;;-146.67;63.29;78039.19;5081367;27;61757;-76
2023/12/17 04:27:35;;;;;;;;;64.75;46.25;;;;;-146.67;63.14;78041.19;5081854;27;61997;-75
2023/12/17 04:30:01;;;;;;;;;59.75;45.25;;;;;-146.67;63.21;78035.19;5082106;27;61618;-75
2023/12/17 04:32:26;;;;;;;;;63.75;48.00;;;;;-146.67;63.01;78033.19;5081390;27;61720;-76
2023/12/17 04:34:55;;;;;;;;;59.00;48.67;;;;;-146.67;62.74;78033.19;5079103;28;63437;-75
2023/12/17 04:37:22;;;;;;;;;59.75;44.50;;;;;-146.67;62.75;78035.19;5080913;28;61784;-76
2023/12/17 04:39:47;;;;;;;;;55.33;46.67;;;;;-146.67;62.59;78041.19;5081874;27;62156;-75
2023/12/17 04:42:12;;;;;;;;;59.50;47.25;;;;;-146.67;62.63;78043.19;5081909;28;61916;-76
2023/12/17 04:44:38;;;;;;;;;52.50;45.25;;;;;-146.67;62.54;78053.16;5081102;28;62606;-76
2023/12/17 04:47:04;;;;;;;;;63.00;46.33;;;;;-146.67;62.53;78057.16;5097550;27;61866;-75
2023/12/17 04:49:29;;;;;;;;;51.00;43.50;;;;;-146.67;62.75;78043.19;5096279;27;61842;-75
2023/12/17 04:51:55;;;;;;;;;60.50;45.50;;;;;-146.67;62.53;78045.19;5097783;27;62107;-76
2023/12/17 04:54:20;;;;;;;;;58.00;44.25;;;;;-146.67;62.30;78057.16;5080921;28;61917;-76
2023/12/17 04:56:45;;;;;;;;;58.75;44.25;;;;;-146.67;62.67;78075.16;5085342;27;61640;-76
2023/12/17 04:59:11;;;;;;;;;62.50;43.00;;;;;-146.67;63.00;78069.16;5085260;28;62116;-75
2023/12/17 05:01:36;;;;;;;;;57.50;44.00;;;;;-146.67;62.83;78061.16;5085103;27;62014;-76
2023/12/17 05:04:01;;;;;;;;;52.75;41.50;;;;;-146.67;62.45;78069.16;5083771;28;62622;-76
2023/12/17 05:06:27;;;;;;;;;51.00;42.00;;;;;-146.67;62.52;78073.16;5100681;27;62003;-75
2023/12/17 05:08:52;;;;;;;;;50.00;41.50;;;;;-146.67;62.80;78067.16;5083011;28;61907;-75
2023/12/17 05:11:18;;;;;;;;;53.75;39.50;;;;;-146.67;62.73;78055.16;5084686;27;61856;-75
2023/12/17 05:13:43;;;;;;;;;42.50;36.50;;;;;-146.67;62.20;78047.16;5082493;28;63743;-75
2023/12/17 05:16:08;;;;;;;;;51.75;39.50;;;;;-146.67;61.79;78043.19;5084639;27;61976;-75
2023/12/17 05:18:34;;;;;;;;;58.25;41.00;;;;;-146.67;61.98;78045.19;5084267;27;61878;-76
2023/12/17 05:20:59;;;;;;;;;47.75;38.00;;;;;-146.67;61.64;78055.16;5084530;28;61834;-75
2023/12/17 05:23:24;;;;;;;;;43.75;37.00;;;;;-146.67;61.26;78067.16;5083356;28;61870;-75
2023/12/17 05:25:50;;;;;;;;;49.00;40.25;;;;;-146.67;61.05;78077.16;5085015;28;62005;-76
2023/12/17 05:28:15;;;;;;;;;18.25;18.25;;;;;-146.67;61.33;78091.13;5084599;27;61951;-75
2023/12/17 05:30:40;;;;;;;;;37.25;33.50;;;;;-146.67;61.36;78103.13;5084584;28;62130;-75
2023/12/17 05:33:07;;;;;;;;;36.50;32.00;;;;;-146.67;61.47;78109.13;5083463;28;62722;-75
2023/12/17 05:35:32;;;;;;;;;46.50;34.25;;;;;-146.67;61.34;78115.13;5084353;28;61770;-75
2023/12/17 05:37:57;;;;;;;;;48.50;38.75;;;;;-146.67;61.33;78115.13;5084363;28;61941;-76
2023/12/17 05:40:23;;;;;;;;;41.75;35.00;;;;;-146.67;61.48;78111.13;5084870;28;61807;-75
2023/12/17 05:42:48;;;;;;;;;38.00;33.00;;;;;-146.67;61.52;78117.09;5099414;27;64755;-76
2023/12/17 05:45:14;;;;;;;;;43.75;32.50;;;;;-146.67;62.03;78117.09;5084459;28;61880;-75
2023/12/17 05:47:39;;;;;;;;;27.25;26.00;;;;;-146.67;61.88;78109.13;5083801;28;61944;-76
2023/12/17 05:50:07;;;;;;;;;36.50;31.75;;;;;-146.67;61.59;78105.13;5084128;28;61771;-76
2023/12/17 05:52:33;;;;;;;;;33.75;29.50;;;;;-146.67;61.50;78095.13;5083108;28;62537;-75
2023/12/17 05:54:58;;;;;;;;;36.50;33.00;;;;;-146.67;61.02;78091.13;5084056;27;61696;-75
2023/12/17 05:57:24;;;;;;;;;30.75;27.25;;;;;-146.67;60.77;78089.13;5084459;28;61880;-75
2023/12/17 05:59:49;;;;;;;;;36.75;24.50;;;;;-146.67;60.42;78083.13;5084307;28;61718;-75
2023/12/17 06:02:14;;;;;;;;;30.50;28.00;;;;;-146.67;60.13;78079.16;5082712;27;62593;-75
2023/12/17 06:04:40;;;;;;;;;26.25;23.75;;;;;-146.67;60.01;78079.16;5084057;27;62048;-75
2023/12/17 06:07:06;;;;;;;;;29.50;24.00;;;;;-146.67;59.60;78079.16;5083800;27;61797;-75
2023/12/17 06:09:32;;;;;;;;;28.25;26.25;;;;;-146.67;59.60;78081.16;5083749;27;61881;-75
2023/12/17 06:12:00;;;;;;;;;31.50;24.75;;;;;-146.67;59.90;78081.16;5098910;27;63648;-76
2023/12/17 06:14:25;;;;;;;;;20.25;20.25;;;;;-146.67;59.82;78087.13;5083686;27;61936;-75
2023/12/17 06:16:50;;;;;;;;;26.50;24.75;;;;;-146.67;59.60;78087.13;5083616;27;61765;-75
2023/12/17 06:19:16;;;;;;;;;20.25;19.50;;;;;-146.67;59.77;78083.13;5083735;27;61839;-75
2023/12/17 06:21:41;;;;;;;;;22.50;20.00;;;;;-146.67;59.89;78081.16;5082984;27;61828;-75
2023/12/17 06:24:07;;;;;;;;;27.00;22.75;;;;;-146.67;59.49;78083.13;5083453;27;61890;-75
2023/12/17 06:26:36;;;;;;;;;25.75;22.25;;;;;-146.67;59.30;78089.13;5083896;27;61808;-75
2023/12/17 06:29:01;;;;;;;;;24.75;21.00;;;;;-146.67;59.07;78089.13;5083768;27;61778;-76
2023/12/17 06:31:27;;;;;;;;;29.50;26.25;;;;;-146.67;59.41;78093.13;5082775;27;61792;-75
2023/12/17 06:33:53;;;;;;;;;24.25;20.50;;;;;-146.67;59.39;78093.13;5083094;27;61794;-76
2023/12/17 06:36:19;;;;;;;;;27.00;25.00;;;;;-146.67;58.72;78095.13;5083883;27;61909;-75
2023/12/17 06:38:45;;;;;;;;;23.00;20.00;;;;;-146.67;59.25;78097.13;5083350;27;62155;-75
2023/12/17 06:41:10;;;;;;;;;26.25;23.25;;;;;-146.67;59.32;78097.13;5082749;27;63129;-75
2023/12/17 06:43:36;;;;;;;;;25.50;21.25;;;;;-146.67;58.86;78099.13;5083320;28;61940;-75
2023/12/17 06:46:02;;;;;;;;;30.75;25.00;;;;;-146.67;58.77;78109.13;5098724;27;61891;-75
2023/12/17 06:48:28;;;;;;;;;26.50;22.25;;;;;-146.67;59.10;78105.13;5083724;28;61734;-76
2023/12/17 06:50:53;;;;;;;;;25.25;23.50;;;;;-146.67;59.07;78109.13;5097660;27;63676;-75
2023/12/17 06:53:18;;;;;;;;;30.50;23.75;;;;;-146.67;58.83;78099.13;5082730;27;61777;-76
2023/12/17 06:55:44;;;;;;;;;24.00;22.25;;;;;-146.67;58.64;78113.13;5099139;27;61743;-76
2023/12/17 06:58:10;;;;;;;;;30.00;23.00;;;;;-146.67;59.02;78111.13;5083391;28;62146;-76
2023/12/17 07:00:36;;;;;;;;;24.50;22.00;;;;;-146.67;59.19;78105.13;5082291;28;62931;-75
2023/12/17 07:03:01;;;;;;;;;32.00;28.00;;;;;-146.67;58.97;78107.13;5082001;27;61888;-75
2023/12/17 07:05:27;;;;;;;;;26.50;20.75;;;;;-146.67;59.11;78111.13;5083421;27;61824;-76
2023/12/17 07:07:52;;;;;;;;;27.75;24.00;;;;;-146.67;58.98;78111.13;5082538;27;61845;-75
2023/12/17 07:10:17;;;;;;;;;35.50;29.00;;;;;-146.67;58.82;78101.13;5082358;27;61991;-75
2023/12/17 07:12:43;;;;;;;;;25.25;25.25;;;;;-146.67;59.05;78111.13;5098325;27;61930;-75
2023/12/17 07:15:09;;;;;;;;;28.50;24.75;;;;;-146.67;58.86;78127.09;5082384;28;61828;-76
2023/12/17 07:17:34;;;;;;;;;24.50;21.25;;;;;-146.67;59.13;78129.09;5082313;28;62016;-76
2023/12/17 07:20:00;;;;;;;;;24.25;21.25;;;;;-146.67;58.78;78141.09;5081217;27;62704;-75
2023/12/17 07:22:25;;;;;;;;;24.00;20.75;;;;;-146.67;59.05;78147.09;5082422;27;61798;-75
2023/12/17 07:24:50;;;;;;;;;24.25;21.25;;;;;-146.67;59.33;78141.09;5082800;27;62075;-75
2023/12/17 07:27:18;;;;;;;;;28.75;26.00;;;;;-146.67;59.45;78139.09;5082644;27;61906;-75
2023/12/17 07:29:51;;;;;;;;;24.25;22.75;;;;;-146.67;59.33;78143.09;5081766;27;61807;-76
2023/12/17 07:32:16;;;;;;;;;24.00;22.50;;;;;-146.67;59.30;78147.09;5082379;27;61851;-76
2023/12/17 07:34:42;;;;;;;;;31.75;23.25;;;;;-146.67;59.79;78141.09;5082299;27;61834;-76
2023/12/17 07:37:07;;;;;;;;;25.00;24.25;;;;;-146.67;59.63;78139.09;5082448;28;61714;-75
2023/12/17 07:39:32;;;;;;;;;18.00;16.50;;;;;-146.67;59.54;78131.09;5081447;28;62560;-76
2023/12/17 07:41:58;;;;;;;;;23.50;16.50;;;;;-146.67;59.72;78131.09;5081938;27;61744;-76
2023/12/17 07:44:25;;;;;;;;;27.25;24.00;;;;;-146.67;59.38;78125.09;5080183;28;61973;-76
2023/12/17 07:46:51;;;;;;;;;25.50;23.75;;;;;-146.67;59.55;78141.09;5082907;28;61813;-76
2023/12/17 07:49:16;;;;;;;;;21.00;17.00;;;;;-146.67;59.85;78137.09;5080432;28;61822;-76
2023/12/17 07:51:42;;;;;;;;;24.50;19.25;;;;;-146.67;59.73;78135.09;5081009;28;61825;-76
2023/12/17 07:54:07;;;;;;;;;23.75;20.50;;;;;-146.67;59.79;78123.09;5080207;28;61828;-77
2023/12/17 07:56:33;;;;;;;;;22.00;17.00;;;;;-146.67;59.71;78127.09;5082513;27;61942;-77
2023/12/17 07:58:58;;;;;;;;;27.00;19.00;;;;;-146.67;59.80;78125.09;5080987;28;62735;-77
2023/12/17 08:01:31;;;;;;;;;26.00;22.50;;;;;-146.67;59.87;78117.09;5114748;27;62437;-77
2023/12/17 08:03:57;;;;;;;;;23.25;20.25;;;;;-146.67;60.07;78113.13;5084662;27;61761;-77
2023/12/17 08:06:23;;;;;;;;;24.50;20.00;;;;;-146.67;59.47;78115.13;5088593;27;61829;-77
2023/12/17 08:08:49;;;;;;;;;28.00;25.50;;;;;-146.67;59.55;78107.13;5101927;27;61920;-76
2023/12/17 08:11:15;;;;;;;;;27.25;22.75;;;;;-146.67;59.30;78099.13;5087427;27;62036;-77
2023/12/17 08:13:40;;;;;;;;;27.75;23.50;;;;;-146.67;59.47;78097.13;5096450;27;62031;-77
2023/12/17 08:16:06;;;;;;;;;26.00;24.75;;;;;-146.67;59.29;78085.13;5071337;28;62008;-77
2023/12/17 08:18:31;;;;;;;;;24.50;20.00;;;;;-146.67;59.06;78085.13;5097255;27;65075;-77
2023/12/17 08:20:57;;;;;;;;;23.50;17.50;;;;;-146.67;59.13;78079.16;5081738;28;61883;-77
2023/12/17 08:23:23;;;;;;;;;32.25;20.50;;;;;-146.67;58.98;78079.16;5080968;27;61794;-76
2023/12/17 08:25:49;;;;;;;;;20.00;17.25;;;;;-146.67;59.07;78083.13;5082326;28;61779;-76
2023/12/17 08:28:16;;;;;;;;;23.00;20.00;;;;;-146.67;58.97;78081.16;5083443;28;61715;-76
2023/12/17 08:30:41;;;;;;;;;27.00;22.25;;;;;-146.67;58.97;78077.16;5083976;28;61811;-75
2023/12/17 08:33:06;;;;;;;;;30.75;22.75;;;;;-146.67;58.72;78073.16;5085422;28;61781;-75
2023/12/17 08:35:32;;;;;;;;;34.25;24.50;;;;;-146.67;58.75;78067.16;5085376;28;62112;-75
2023/12/17 08:38:03;;;;;;;;;28.25;19.00;;;;;-146.67;58.64;78061.16;5084235;28;62004;-75
2023/12/17 08:40:30;;;;;;;;;21.50;20.00;;;;;-146.67;58.50;78055.16;5085413;27;62083;-75
2023/12/17 08:42:55;;;;;;;;;27.00;17.25;;;;;-146.67;58.51;78055.16;5085173;28;62007;-75
2023/12/17 08:45:20;;;;;;;;;29.75;24.00;;;;;-146.67;58.53;78047.16;5084715;28;62047;-75
2023/12/17 08:47:46;;;;;;;;;22.50;18.50;;;;;-146.67;58.15;78041.19;5090915;27;63919;-75
2023/12/17 08:50:12;;;;;;;;;29.00;24.75;;;;;-146.67;57.79;78045.19;5097686;27;61941;-75
2023/12/17 08:52:38;;;;;;;;;25.25;20.25;;;;;-146.67;58.02;78035.19;5091994;27;62484;-75
2023/12/17 08:55:07;;;;;;;;;23.25;20.75;;;;;-146.67;58.03;78035.19;5112164;27;61991;-75
2023/12/17 08:57:32;;;;;;;;;26.25;20.00;;;;;-146.67;57.82;78033.19;5102712;27;63771;-75
2023/12/17 08:59:58;;;;;;;;;29.50;24.00;;;;;-146.67;57.79;78037.19;5094783;27;61948;-75
2023/12/17 09:02:23;;;;;;;;;25.50;20.00;;;;;-146.67;57.56;78027.19;5094030;27;62196;-75
2023/12/17 09:04:51;;;;;;;;;22.50;20.00;;;;;-146.67;57.65;78033.19;5084719;27;61893;-75
2023/12/17 09:07:19;;;;;;;;;25.75;18.00;;;;;-146.67;57.49;78023.19;5090559;27;61744;-75
2023/12/17 09:09:44;;;;;;;;;30.25;23.50;;;;;-146.67;57.54;78017.19;5073801;27;62001;-74
2023/12/17 09:12:10;;;;;;;;;26.50;23.25;;;;;-146.67;57.39;78005.22;5092831;27;62114;-75
2023/12/17 09:14:36;;;;;;;;;30.00;20.75;;;;;-146.67;57.51;77993.22;5111592;27;61990;-75
2023/12/17 09:17:02;;;;;;;;;25.25;21.25;;;;;-146.67;56.94;77991.22;5094332;27;62400;-79
2023/12/17 09:19:27;;;;;;;;;21.50;19.75;;;;;-146.67;56.78;77987.22;5084040;28;61786;-77
2023/12/17 09:21:53;;;;;;;;;26.75;23.25;;;;;-146.67;56.49;77979.22;5089206;27;61899;-74
2023/12/17 09:24:18;;;;;;;;;22.50;20.00;;;;;-146.67;56.90;77979.22;5083365;28;61912;-73
2023/12/17 09:26:45;;;;;;;;;24.25;16.00;;;;;-146.67;56.70;77977.22;5088537;27;62084;-73
2023/12/17 09:29:13;;;;;;;;;18.25;17.00;;;;;-146.67;56.19;77973.25;5104518;27;62097;-73
2023/12/17 09:31:39;;;;;;;;;19.25;17.25;;;;;-146.67;56.22;77971.25;5080961;28;61778;-73
2023/12/17 09:34:05;;;;;;;;;20.75;16.00;;;;;-146.67;56.20;77971.25;5083530;28;61769;-73
2023/12/17 09:36:31;;;;;;;;;21.50;17.25;;;;;-146.67;56.19;77969.25;5083014;28;61927;-73
2023/12/17 09:38:56;;;;;;;;;26.25;24.50;;;;;-146.67;56.13;77955.25;5081957;27;62069;-73
2023/12/17 09:41:23;;;;;;;;;17.00;17.00;;;;;-146.67;56.19;77953.25;5085198;27;61908;-73
2023/12/17 09:43:49;;;;;;;;;25.25;20.00;;;;;-146.67;56.04;77937.28;5080863;28;62057;-75
2023/12/17 09:46:14;;;;;;;;;25.50;23.00;;;;;-146.67;55.96;77929.28;5083732;27;62511;-74
2023/12/17 09:48:40;;;;;;;;;20.25;18.25;;;;;-146.67;56.13;77927.28;5084601;27;61887;-74
2023/12/17 09:51:06;;;;;;;;;20.25;19.00;;;;;-146.67;56.10;77919.28;5086124;27;61915;-75
2023/12/17 09:53:33;;;;;;;;;21.25;17.75;;;;;-146.67;55.62;77915.28;5083317;28;62355;-75
2023/12/17 09:55:58;;;;;;;;;29.75;20.75;;;;;-146.67;55.45;77913.28;5082502;28;61926;-75
2023/12/17 09:58:26;;;;;;;;;23.50;15.75;;;;;-146.67;55.96;77911.28;5086043;27;61844;-75
2023/12/17 10:00:52;;;;;;;;;27.25;18.75;;;;;-146.67;55.97;77907.31;5093785;27;61987;-73
2023/12/17 10:03:17;;;;;;;;;22.75;18.00;;;;;-146.67;55.90;77897.31;5083957;27;62206;-77
2023/12/17 10:05:49;;;;;;;;;30.50;18.00;;;;;-146.67;55.80;77897.31;5092627;27;63874;-75
2023/12/17 10:08:15;;;;;;;;;19.50;19.50;;;;;-146.67;55.51;77887.31;5092163;27;61977;-74
2023/12/17 10:10:41;;;;;;;;;19.00;15.00;;;;;-146.67;55.14;77875.34;5093672;27;61903;-75
2023/12/17 10:13:07;;;;;;;;;18.25;15.25;;;;;-146.67;54.98;77861.34;5091484;27;61792;-74
2023/12/17 10:15:39;;;;;;;;;30.50;19.00;;;;;-146.67;54.61;77859.34;5099832;27;63561;-74
2023/12/17 10:18:04;;;;;;;;;26.75;21.25;;;;;-146.67;54.42;77851.34;5100649;27;61969;-75
2023/12/17 10:20:33;;;;;;;;;23.50;18.25;;;;;-146.67;54.31;77839.38;5097195;27;61712;-75
2023/12/17 10:23:00;;;;;;;;;29.00;20.50;;;;;-146.67;54.65;77825.38;5102536;27;53190;-75
2023/12/17 10:25:27;;;;;;;;;29.25;20.50;;;;;-146.67;53.99;77813.38;5109642;27;39657;-75
2023/12/17 10:27:57;;;;;;;;;26.00;21.75;;;;;-146.67;53.51;77801.41;5100759;28;39396;-77
2023/12/17 10:30:31;;;;;;;;;26.00;20.00;;;;;-146.67;53.72;77851.34;5101492;27;39959;-75
2023/12/17 10:32:59;;;;;;;;;24.75;19.00;;;;;-146.67;53.34;77795.41;5099901;27;44327;-75
2023/12/17 10:35:25;;;;;;;;;14.75;14.75;;;;;-146.67;53.10;77789.41;5109516;27;60487;-75
2023/12/17 10:37:53;;;;;;;;;20.50;16.00;;;;;-146.67;52.98;77773.44;5097151;27;50442;-75
2023/12/17 10:40:21;;;;;;;;;26.75;22.50;;;;;-146.67;52.32;77773.44;5100354;28;37804;-73
2023/12/17 10:42:47;;;;;;;;;23.75;16.75;;;;;-146.67;52.59;77757.44;5098359;28;38236;-74
2023/12/17 10:45:15;;;;;;;;;25.75;20.50;;;;;-146.67;52.54;77743.47;5100008;27;38471;-76
2023/12/17 10:47:41;;;;;;;;;24.25;18.75;;;;;-146.67;51.70;77741.47;5103882;27;37822;-75
2023/12/17 10:50:08;;;;;;;;;30.25;20.00;;;;;-146.67;52.15;77723.47;5104598;27;38738;-75
2023/12/17 10:52:35;;;;;;;;;30.25;23.00;;;;;-146.67;51.68;77709.50;5095898;28;38532;-74
2023/12/17 10:55:01;;;;;;;;;19.50;18.75;;;;;-146.67;51.10;77703.50;5100719;28;39610;-75